WetterOnline ( http://www.wetteronline.ch )

Wetter aktuell Plön

Aktuelles Wetter: Dörnick (28m)

6-stündlich | Neueste Meldungen
Ortszeit Temperatur Wetter
Di, 19.03. 7:00 2.3° C bewölkt
Di, 19.03. 1:00 2.7° C leicht bewölkt
Mo, 18.03. 19:00 4.7° C fast wolkenlos
Mo, 18.03. 13:00 7.0° C wolkig
Mo, 18.03. 7:00 4.3° C bewölkt
Mo, 18.03. 1:00 4.0° C leichter Regen
So, 17.03. 19:00 5.4° C leicht bewölkt
So, 17.03. 13:00 6.9° C bewölkt
Ortszeit Temperatur Wetter
Di, 19.03. 8:00 3.1° C fast wolkenlos
Di, 19.03. 7:50 3.1° C fast wolkenlos
Di, 19.03. 7:40 2.9° C fast wolkenlos
Di, 19.03. 7:30 2.6° C wolkig
Di, 19.03. 7:20 2.6° C wolkig
Di, 19.03. 7:10 2.3° C bewölkt
Di, 19.03. 7:00 2.3° C bewölkt
Di, 19.03. 6:30 1.6° C wolkig
Di, 19.03. 6:00 1.6° C leicht bewölkt
Di, 19.03. 5:30 1.3° C fast wolkenlos
Di, 19.03. 5:00 1.5° C wolkenlos
Ortszeit Relative Feuchte Sichtweite
Di, 19.03. 7:00 83% 21 km
Di, 19.03. 1:00 79% 23 km
Mo, 18.03. 19:00 75% 22 km
Mo, 18.03. 13:00 70% 11 km
Mo, 18.03. 7:00 85% 30 km
Mo, 18.03. 1:00 89% 13 km
So, 17.03. 19:00 74% 35 km
So, 17.03. 13:00 77% 30 km
Ortszeit Relative Feuchte Sichtweite
Di, 19.03. 8:00 81% 17 km
Di, 19.03. 7:50 81% -
Di, 19.03. 7:40 81% -
Di, 19.03. 7:30 82% 24 km
Di, 19.03. 7:20 82% -
Di, 19.03. 7:10 83% -
Di, 19.03. 7:00 83% 21 km
Di, 19.03. 6:30 85% 22 km
Di, 19.03. 6:00 84% 21 km
Di, 19.03. 5:30 84% 22 km
Di, 19.03. 5:00 82% 24 km
Ortszeit Niederschlagsmenge Niederschlagsart
Di, 19.03. 7:00 0.0 l/m2 in 12 Std. -
Di, 19.03. 1:00 0.0 l/m2 in 6 Std. -
Mo, 18.03. 19:00 2 l/m2 in 12 Std. Schnee, Regen
Mo, 18.03. 13:00 0.9 l/m2 in 6 Std. Regen
Mo, 18.03. 7:00 5 l/m2 in 12 Std. Regen
Mo, 18.03. 1:00 2 l/m2 in 6 Std. Schnee, Regen
So, 17.03. 19:00 2 l/m2 in 12 Std. Regen
So, 17.03. 13:00 1 l/m2 in 6 Std. Regen
Ortszeit Niederschlagsmenge Niederschlagsart
Di, 19.03. 8:00 0.0 l/m2 in 1 Std. -
Di, 19.03. 7:50 keine Meldung -
Di, 19.03. 7:40 keine Meldung -
Di, 19.03. 7:30 0.0 l/m2 in 1 Std. -
Di, 19.03. 7:20 keine Meldung -
Di, 19.03. 7:10 keine Meldung -
Di, 19.03. 7:00 0.0 l/m2 in 1 Std. -
Di, 19.03. 6:30 0.0 l/m2 in 1 Std. -
Di, 19.03. 6:00 0.0 l/m2 in 1 Std. -
Di, 19.03. 5:30 0.0 l/m2 in 1 Std. -
Di, 19.03. 5:00 0.0 l/m2 in 1 Std. -
Ortszeit Stärke Spitze Richtung
km/h Bft. km/h Grad Sektor
Di, 19.03. 7:00 14 3 25 260° W
Di, 19.03. 1:00 11 2 43 260° W
Mo, 18.03. 19:00 25 4 61 280° W
Mo, 18.03. 13:00 41 6 70 270° W
Mo, 18.03. 7:00 28 4 59 250° W
Mo, 18.03. 1:00 32 5 68 230° SW
So, 17.03. 19:00 28 4 74 250° W
So, 17.03. 13:00 29 5 58 270° W
Ortszeit Stärke Spitze Richtung
km/h Bft. km/h Grad Sektor
Di, 19.03. 8:00 18 3 25 280° W
Di, 19.03. 7:50 18 3 - 280° W
Di, 19.03. 7:40 17 3 - 270° W
Di, 19.03. 7:30 14 3 25 270° W
Di, 19.03. 7:20 14 3 - 270° W
Di, 19.03. 7:10 14 3 - 270° W
Di, 19.03. 7:00 14 3 25 260° W
Di, 19.03. 6:30 14 3 18 250° W
Di, 19.03. 6:00 11 2 18 250° W
Di, 19.03. 5:30 13 3 19 250° W
Di, 19.03. 5:00 13 3 19 250° W
Ortszeit Untergrenze Bedeckung Gattung
total tief tief mittel hoch
Di, 19.03. 7:00 630 m 7/8 7/8 - - -
Di, 19.03. 1:00 900 m 2/8 2/8 - - -
Mo, 18.03. 19:00 1440 m 1/8 1/8 - - -
Mo, 18.03. 13:00 900 m 6/8 7/8 - - -
Mo, 18.03. 7:00 660 m 8/8 4/8 - - -
Mo, 18.03. 1:00 420 m 7/8 7/8 - - -
So, 17.03. 19:00 1200 m 2/8 3/8 - - -
So, 17.03. 13:00 690 m 7/8 7/8 - - -
Ortszeit Bedeckungsgrad in Achtel und Wolkenuntergrenze
Di, 19.03. 8:00 1(1500m)
Di, 19.03. 7:50 1(1500m)
Di, 19.03. 7:40 1(1500m)
Di, 19.03. 7:30 4(540m) 5(1500m)
Di, 19.03. 7:20 4(540m) 5(1500m)
Di, 19.03. 7:10 7(570m)
Di, 19.03. 7:00 7(630m) 7(690m)
Di, 19.03. 6:30 5(750m)
Di, 19.03. 6:00 4(780m)
Di, 19.03. 5:30 2(750m)
Di, 19.03. 5:00 keine Wolken
Ortszeit Luftdruck NN (hPa) Tendenz (hPa in 3 Std.)
Di, 19.03. 7:00 1022 + 1,9
Di, 19.03. 1:00 1018 + 2,1
Mo, 18.03. 19:00 1013 + 3,2
Mo, 18.03. 13:00 1007 + 2,6
Mo, 18.03. 7:00 1002 + 1,5
Mo, 18.03. 1:00 1000 + 0,5
So, 17.03. 19:00 999 + 2,1
So, 17.03. 13:00 996 + 2,4
Ortszeit Luftdruck NN (hPa) Tendenz (hPa in 3 Std.)
Di, 19.03. 8:00 1022 + 1,8
Di, 19.03. 7:50 1022 keine Meldung
Di, 19.03. 7:40 1022 keine Meldung
Di, 19.03. 7:30 1022 + 1,9
Di, 19.03. 7:20 1022 keine Meldung
Di, 19.03. 7:10 1022 keine Meldung
Di, 19.03. 7:00 1022 + 1,9
Di, 19.03. 6:30 1021 + 1,8
Di, 19.03. 6:00 1021 + 1,9
Di, 19.03. 5:30 1021 + 1,6
Di, 19.03. 5:00 1020 + 1,5
Ortszeit Schneehöhe (cm)
Di, 19.03. 7:00 0
Di, 19.03. 1:00 0
Mo, 18.03. 19:00 0
Mo, 18.03. 13:00 0
Mo, 18.03. 7:00 0
Mo, 18.03. 1:00 0
So, 17.03. 19:00 0
So, 17.03. 13:00 0
Ortszeit Schneehöhe (cm)
Di, 19.03. 8:00 0
Di, 19.03. 7:50 0
Di, 19.03. 7:40 0
Di, 19.03. 7:30 0
Di, 19.03. 7:20 0
Di, 19.03. 7:10 0
Di, 19.03. 7:00 0
Di, 19.03. 6:30 0
Di, 19.03. 6:00 0
Di, 19.03. 5:30 0
Di, 19.03. 5:00 0
Link zu dieser Seite / Seite empfehlen

Das Wetter in ...